Time;durP1;ratioP1;P1;durP2;ratioP2;P2;SDS_P1;SDS_P2;PMS_P1;PMS_P2;Temp;Humidity;BMP_temperature;BMP_pressure;BME280_temperature;BME280_humidity;BME280_pressure;Samples;Min_cycle;Max_cycle;Signal;HPM_P1;HPM_P2
2022/01/05 00:02:18;;;;;;;3.90;2.40;;;8.10;89.80;;;;;;4954616;28;20470;-46
2022/01/05 00:04:47;;;;;;;2.20;2.10;;;8.10;89.80;;;;;;4933744;28;20489;-45
2022/01/05 00:07:13;;;;;;;2.53;2.33;;;8.10;89.80;;;;;;4953637;28;20768;-46
2022/01/05 00:09:40;;;;;;;2.70;2.33;;;8.10;89.80;;;;;;4949136;28;20550;-46
2022/01/05 00:12:07;;;;;;;2.60;2.40;;;8.00;89.80;;;;;;4953805;28;20451;-46
2022/01/05 00:14:34;;;;;;;2.50;2.30;;;8.00;89.80;;;;;;4952453;28;20907;-46
2022/01/05 00:17:01;;;;;;;2.23;2.03;;;8.00;89.80;;;;;;4950472;28;20470;-46
2022/01/05 00:19:28;;;;;;;2.33;2.10;;;8.00;89.80;;;;;;4966404;28;20455;-47
2022/01/05 00:21:55;;;;;;;3.10;2.40;;;8.00;89.80;;;;;;4967730;28;20455;-47
2022/01/05 00:24:22;;;;;;;4.23;2.33;;;8.00;89.80;;;;;;4954137;28;20864;-46
2022/01/05 00:26:48;;;;;;;2.50;1.90;;;8.00;89.80;;;;;;4950911;28;20496;-46
2022/01/05 00:29:15;;;;;;;2.20;1.63;;;8.00;89.80;;;;;;4954509;28;20454;-46
2022/01/05 00:31:42;;;;;;;1.50;1.40;;;8.00;89.80;;;;;;4948775;28;20463;-46
2022/01/05 00:34:09;;;;;;;1.70;1.50;;;8.00;89.80;;;;;;4949953;28;20454;-46
2022/01/05 00:36:35;;;;;;;3.00;1.87;;;8.00;89.80;;;;;;4947520;28;20460;-46
2022/01/05 00:39:03;;;;;;;1.40;1.37;;;8.10;89.10;;;;;;4948775;28;20470;-46
2022/01/05 00:41:30;;;;;;;1.70;1.60;;;8.10;88.30;;;;;;4948503;28;20455;-46
2022/01/05 00:43:56;;;;;;;1.30;1.20;;;8.00;88.20;;;;;;4965916;28;20490;-46
2022/01/05 00:46:23;;;;;;;2.03;0.83;;;8.00;88.30;;;;;;4949885;28;20455;-48
2022/01/05 00:48:52;;;;;;;1.57;1.10;;;8.00;88.70;;;;;;4951674;28;20471;-46
2022/01/05 00:51:18;;;;;;;1.70;1.07;;;8.00;88.80;;;;;;4953200;28;20941;-46
2022/01/05 00:53:45;;;;;;;1.43;0.87;;;8.00;88.60;;;;;;4951081;28;20466;-46
2022/01/05 00:56:12;;;;;;;2.20;0.93;;;8.00;88.60;;;;;;4951598;28;20458;-46
2022/01/05 00:58:39;;;;;;;1.10;1.00;;;8.00;87.80;;;;;;4954311;28;20478;-46
2022/01/05 01:01:05;;;;;;;0.80;0.80;;;7.90;88.00;;;;;;4964920;28;20466;-46
2022/01/05 01:03:33;;;;;;;1.33;0.80;;;7.90;88.20;;;;;;4951844;28;20957;-46
2022/01/05 01:06:00;;;;;;;1.20;0.90;;;7.90;88.20;;;;;;4949013;28;20491;-46
2022/01/05 01:08:27;;;;;;;0.60;0.60;;;7.90;87.80;;;;;;4952853;28;20458;-46
2022/01/05 01:10:54;;;;;;;1.10;0.73;;;7.90;88.40;;;;;;4948689;28;20463;-46
2022/01/05 01:13:21;;;;;;;0.40;0.40;;;7.90;88.20;;;;;;4958126;28;20459;-46
2022/01/05 01:15:49;;;;;;;4.00;0.70;;;7.90;87.80;;;;;;4956490;28;20467;-46
2022/01/05 01:18:17;;;;;;;0.60;0.60;;;7.90;88.10;;;;;;4956281;28;20462;-46
2022/01/05 01:20:45;;;;;;;0.50;0.50;;;7.90;87.70;;;;;;4953138;28;20766;-45
2022/01/05 01:23:12;;;;;;;1.13;0.40;;;7.90;87.70;;;;;;4947645;28;20919;-46
2022/01/05 01:25:38;;;;;;;0.50;0.50;;;7.90;87.60;;;;;;4953765;28;20584;-47
2022/01/05 01:28:06;;;;;;;6.33;0.60;;;7.90;86.70;;;;;;4949253;28;20462;-46
2022/01/05 01:30:34;;;;;;;1.20;0.50;;;7.80;87.10;;;;;;4955548;28;20453;-47
2022/01/05 01:33:00;;;;;;;2.43;0.50;;;7.80;87.20;;;;;;4951798;28;21053;-46
2022/01/05 01:35:28;;;;;;;2.57;0.57;;;7.80;87.70;;;;;;4952235;28;20485;-46
2022/01/05 01:37:55;;;;;;;0.50;0.50;;;7.80;87.20;;;;;;4954752;28;20840;-46
2022/01/05 01:40:22;;;;;;;0.50;0.50;;;7.70;87.90;;;;;;4949739;28;20561;-46
2022/01/05 01:42:50;;;;;;;5.00;0.57;;;7.70;88.00;;;;;;4952341;28;20950;-46
2022/01/05 01:45:17;;;;;;;0.50;0.50;;;7.70;88.10;;;;;;4953432;28;20859;-46
2022/01/05 01:47:45;;;;;;;0.83;0.40;;;7.60;88.10;;;;;;4954269;28;20462;-45
2022/01/05 01:50:13;;;;;;;0.50;0.50;;;7.60;88.70;;;;;;4951554;28;20553;-46
2022/01/05 01:52:40;;;;;;;1.00;0.50;;;7.60;88.40;;;;;;4936151;28;20470;-46
2022/01/05 01:55:08;;;;;;;0.50;0.50;;;7.60;88.50;;;;;;4966078;28;20475;-46
2022/01/05 01:57:38;;;;;;;0.30;0.30;;;7.50;88.90;;;;;;4962899;28;20488;-46
2022/01/05 02:00:06;;;;;;;1.13;0.60;;;7.50;89.60;;;;;;4964219;28;20558;-46
2022/01/05 02:02:33;;;;;;;0.50;0.50;;;7.60;89.50;;;;;;4966923;28;20467;-45
2022/01/05 02:05:01;;;;;;;1.37;0.77;;;7.60;89.00;;;;;;4967571;28;21004;-45
2022/01/05 02:07:28;;;;;;;0.90;0.50;;;7.60;89.10;;;;;;4952049;28;20472;-45
2022/01/05 02:09:54;;;;;;;0.80;0.60;;;7.50;86.60;;;;;;4952245;28;20463;-44
2022/01/05 02:12:26;;;;;;;0.80;0.50;;;7.30;83.50;;;;;;4936662;28;20499;-45
2022/01/05 02:14:54;;;;;;;0.67;0.40;;;7.20;84.40;;;;;;4939358;28;20981;-44
2022/01/05 02:17:28;;;;;;;0.50;0.33;;;7.00;83.40;;;;;;4955228;28;20729;-44
2022/01/05 02:19:55;;;;;;;0.50;0.50;;;6.80;84.50;;;;;;4953430;28;20963;-45
2022/01/05 02:22:22;;;;;;;0.70;0.60;;;6.70;85.80;;;;;;4955438;28;20468;-45
2022/01/05 02:24:49;;;;;;;0.60;0.57;;;6.60;85.80;;;;;;4957035;28;20490;-45
2022/01/05 02:27:16;;;;;;;4.30;0.80;;;6.50;86.50;;;;;;4958169;28;20851;-45
2022/01/05 02:29:45;;;;;;;1.40;0.97;;;6.50;87.10;;;;;;4966667;28;20964;-45
2022/01/05 02:32:12;;;;;;;0.90;0.87;;;6.50;87.20;;;;;;4956449;28;20462;-45
2022/01/05 02:34:39;;;;;;;2.03;0.83;;;6.40;87.60;;;;;;4950715;28;20816;-45
2022/01/05 02:37:05;;;;;;;1.30;1.23;;;6.40;86.90;;;;;;4957849;28;20458;-45
2022/01/05 02:39:32;;;;;;;2.00;1.23;;;6.40;87.20;;;;;;4952872;28;20469;-46
2022/01/05 02:41:59;;;;;;;0.97;0.97;;;6.40;86.90;;;;;;4950320;28;20538;-45
2022/01/05 02:44:27;;;;;;;1.40;1.30;;;6.30;87.20;;;;;;4969199;28;20502;-46
2022/01/05 02:46:53;;;;;;;1.03;1.03;;;6.30;86.60;;;;;;4953557;28;20463;-46
2022/01/05 02:49:20;;;;;;;1.23;1.23;;;6.30;85.80;;;;;;4952378;28;20463;-46
2022/01/05 02:51:47;;;;;;;1.20;0.90;;;6.30;84.80;;;;;;4947353;28;20467;-46
2022/01/05 02:54:14;;;;;;;1.70;1.20;;;6.10;84.20;;;;;;4953097;28;20912;-47
2022/01/05 02:56:41;;;;;;;1.43;1.23;;;6.00;84.10;;;;;;4951243;28;20455;-46
2022/01/05 02:59:08;;;;;;;0.90;0.90;;;6.00;85.30;;;;;;4946690;28;20535;-46
2022/01/05 03:01:36;;;;;;;1.13;1.03;;;6.00;85.90;;;;;;4950025;28;20456;-47
2022/01/05 03:04:05;;;;;;;2.20;0.97;;;6.00;84.50;;;;;;4952766;28;20967;-46
2022/01/05 03:06:31;;;;;;;1.23;1.13;;;6.00;85.40;;;;;;4949003;28;20558;-46
2022/01/05 03:08:59;;;;;;;0.90;0.90;;;5.90;85.10;;;;;;4952870;28;20459;-46
2022/01/05 03:11:27;;;;;;;0.97;0.97;;;5.90;85.10;;;;;;4966258;28;20538;-46
2022/01/05 03:13:54;;;;;;;0.80;0.80;;;5.80;86.10;;;;;;4947134;28;20991;-46
2022/01/05 03:16:20;;;;;;;1.00;1.00;;;5.80;86.00;;;;;;4968421;28;20466;-46
2022/01/05 03:18:47;;;;;;;0.90;0.90;;;5.80;85.10;;;;;;4948903;28;20467;-46
2022/01/05 03:21:14;;;;;;;1.10;1.00;;;5.70;85.10;;;;;;4951276;28;20455;-46
2022/01/05 03:23:45;;;;;;;0.93;0.80;;;5.70;85.70;;;;;;4950014;28;20491;-46
2022/01/05 03:26:12;;;;;;;0.50;0.50;;;5.70;85.80;;;;;;4948821;28;20548;-47
2022/01/05 03:28:39;;;;;;;0.70;0.70;;;5.70;85.80;;;;;;4942738;28;20466;-47
2022/01/05 03:31:06;;;;;;;1.10;1.10;;;5.70;85.50;;;;;;4950332;28;20851;-47
2022/01/05 03:33:33;;;;;;;1.00;0.90;;;5.70;85.20;;;;;;4951276;28;20455;-46
2022/01/05 03:36:00;;;;;;;0.70;0.70;;;5.60;85.80;;;;;;4949410;28;20461;-46
2022/01/05 03:38:28;;;;;;;1.40;1.10;;;5.60;85.70;;;;;;4948867;28;20463;-46
2022/01/05 03:40:55;;;;;;;0.90;0.90;;;5.50;86.30;;;;;;4967963;28;20895;-46
2022/01/05 03:43:21;;;;;;;0.70;0.70;;;5.50;86.50;;;;;;4970658;28;20558;-47
2022/01/05 03:45:49;;;;;;;3.70;3.33;;;5.50;86.30;;;;;;4949913;28;20494;-47
2022/01/05 03:48:18;;;;;;;0.80;0.80;;;5.60;87.10;;;;;;4950504;28;20477;-47
2022/01/05 03:50:46;;;;;;;0.70;0.70;;;5.60;86.70;;;;;;4953048;28;20953;-46
2022/01/05 03:53:13;;;;;;;0.53;0.53;;;5.60;86.40;;;;;;4954726;28;20508;-46
2022/01/05 03:55:42;;;;;;;1.70;0.90;;;5.60;86.60;;;;;;4951116;28;20992;-49
2022/01/05 03:58:10;;;;;;;0.73;0.73;;;5.70;84.50;;;;;;4951102;28;20463;-49
2022/01/05 04:00:48;;;;;;;1.00;1.00;;;5.60;83.70;;;;;;4953294;28;20890;-49
2022/01/05 04:03:16;;;;;;;1.90;0.80;;;5.60;84.10;;;;;;4953667;28;20455;-49
2022/01/05 04:05:44;;;;;;;1.33;1.00;;;5.50;83.20;;;;;;4955547;28;20489;-49
2022/01/05 04:08:12;;;;;;;1.90;1.10;;;5.50;83.10;;;;;;4951338;28;20465;-49
2022/01/05 04:10:39;;;;;;;1.40;1.30;;;5.50;84.70;;;;;;4951017;28;20451;-48
2022/01/05 04:13:06;;;;;;;1.67;0.80;;;5.50;83.40;;;;;;4952714;28;20497;-49
2022/01/05 04:15:33;;;;;;;1.70;1.47;;;5.50;83.60;;;;;;4954978;28;20459;-50
2022/01/05 04:17:59;;;;;;;1.57;1.30;;;5.40;82.10;;;;;;4950886;28;20466;-50
2022/01/05 04:20:26;;;;;;;1.23;1.13;;;5.40;82.70;;;;;;4949926;28;20471;-49
2022/01/05 04:22:53;;;;;;;1.97;1.33;;;5.30;82.40;;;;;;4953132;28;21012;-50
2022/01/05 04:25:20;;;;;;;1.33;1.23;;;5.30;83.70;;;;;;4953350;28;20487;-50
2022/01/05 04:27:47;;;;;;;1.80;1.43;;;5.30;82.60;;;;;;4965712;28;20462;-49
2022/01/05 04:30:13;;;;;;;1.27;1.17;;;5.30;83.60;;;;;;4965490;28;20460;-50
2022/01/05 04:32:40;;;;;;;2.03;1.67;;;5.20;83.00;;;;;;4954979;28;20459;-49
2022/01/05 04:35:28;;;;;;;5.77;2.13;;;5.20;83.00;;;;;;4969316;28;20791;-49
2022/01/05 04:37:55;;;;;;;3.73;2.43;;;5.20;83.30;;;;;;4950553;28;20545;-49
2022/01/05 04:40:22;;;;;;;3.10;2.00;;;5.20;83.40;;;;;;4955551;28;20474;-49
2022/01/05 04:42:48;;;;;;;4.10;1.90;;;5.20;83.80;;;;;;4953019;28;20467;-48
2022/01/05 04:45:15;;;;;;;2.87;1.73;;;5.20;82.90;;;;;;4955228;28;20487;-50
2022/01/05 04:47:43;;;;;;;3.90;2.47;;;5.10;83.20;;;;;;4953564;28;20460;-49
2022/01/05 04:50:14;;;;;;;4.73;2.33;;;5.10;83.90;;;;;;4957790;28;20443;-49
2022/01/05 04:52:42;;;;;;;4.27;2.30;;;5.10;84.50;;;;;;4955568;28;20440;-49
2022/01/05 04:55:09;;;;;;;3.90;1.67;;;5.10;84.60;;;;;;4956698;28;20807;-49
2022/01/05 04:57:36;;;;;;;3.27;1.60;;;5.20;84.60;;;;;;4962533;28;20458;-50
2022/01/05 05:00:04;;;;;;;2.43;1.40;;;5.20;84.50;;;;;;4959147;28;20905;-49
2022/01/05 05:02:31;;;;;;;1.73;1.30;;;5.20;83.80;;;;;;4971730;28;20463;-50
2022/01/05 05:04:58;;;;;;;4.07;2.00;;;5.20;83.60;;;;;;4954788;28;20462;-50
2022/01/05 05:07:24;;;;;;;4.33;1.63;;;5.20;83.20;;;;;;4977640;28;20986;-50
2022/01/05 05:09:51;;;;;;;4.60;2.07;;;5.10;83.40;;;;;;4955561;28;20537;-49
2022/01/05 05:12:18;;;;;;;5.03;1.47;;;5.10;83.20;;;;;;4975527;28;20458;-49
2022/01/05 05:14:45;;;;;;;1.33;1.03;;;5.10;83.70;;;;;;4952392;28;20474;-49
2022/01/05 05:17:12;;;;;;;4.50;1.03;;;5.10;84.30;;;;;;4960781;28;20461;-49
2022/01/05 05:19:38;;;;;;;2.87;1.40;;;5.10;84.10;;;;;;4955694;28;20452;-49
2022/01/05 05:22:05;;;;;;;5.83;1.17;;;5.10;83.80;;;;;;4953426;28;20465;-49
2022/01/05 05:24:32;;;;;;;2.70;1.10;;;5.10;83.40;;;;;;4959663;28;20919;-49
2022/01/05 05:26:59;;;;;;;8.23;1.43;;;5.10;84.30;;;;;;4956390;28;20494;-49
2022/01/05 05:29:26;;;;;;;3.33;1.53;;;5.10;82.50;;;;;;4970086;28;20466;-49
2022/01/05 05:31:53;;;;;;;1.33;1.17;;;5.10;82.90;;;;;;4971175;28;20470;-50
2022/01/05 05:34:19;;;;;;;5.17;1.50;;;5.10;81.70;;;;;;4960669;28;20470;-49
2022/01/05 05:36:46;;;;;;;3.03;1.00;;;5.10;80.90;;;;;;4955547;28;20450;-49
2022/01/05 05:39:13;;;;;;;2.37;1.20;;;5.00;81.20;;;;;;4954248;28;20534;-49
2022/01/05 05:41:40;;;;;;;3.93;1.10;;;5.00;82.70;;;;;;4958665;28;20469;-49
2022/01/05 05:44:06;;;;;;;2.83;1.27;;;5.00;81.30;;;;;;4954449;28;20469;-49
2022/01/05 05:46:34;;;;;;;1.90;1.20;;;5.00;80.60;;;;;;4956443;28;20482;-49
2022/01/05 05:49:01;;;;;;;5.43;1.80;;;4.90;80.10;;;;;;4956077;28;20455;-50
2022/01/05 05:51:28;;;;;;;2.20;1.50;;;4.80;79.00;;;;;;4958829;28;20937;-51
2022/01/05 05:53:54;;;;;;;2.20;1.40;;;4.80;80.50;;;;;;4955555;28;20459;-49
2022/01/05 05:56:21;;;;;;;1.87;1.50;;;4.80;77.80;;;;;;4960042;28;20965;-50
2022/01/05 05:58:48;;;;;;;2.50;1.47;;;4.70;77.50;;;;;;4954097;28;20975;-50
2022/01/05 06:01:15;;;;;;;1.33;1.23;;;4.70;78.80;;;;;;4949375;28;20469;-49
2022/01/05 06:03:42;;;;;;;3.23;1.43;;;4.70;78.50;;;;;;4969245;28;20459;-49
2022/01/05 06:06:09;;;;;;;2.50;1.33;;;4.70;79.00;;;;;;4968720;28;21016;-49
2022/01/05 06:08:40;;;;;;;2.67;1.20;;;4.70;80.00;;;;;;4957246;28;20466;-48
2022/01/05 06:11:07;;;;;;;6.47;1.30;;;4.70;80.70;;;;;;4960501;28;20526;-49
2022/01/05 06:13:37;;;;;;;2.50;2.00;;;4.80;79.60;;;;;;4952352;28;20463;-49
2022/01/05 06:16:04;;;;;;;3.07;1.50;;;4.80;78.50;;;;;;4951686;28;20567;-50
2022/01/05 06:18:31;;;;;;;3.30;1.50;;;4.70;79.20;;;;;;4950011;28;20477;-50
2022/01/05 06:20:57;;;;;;;1.33;1.23;;;4.70;79.70;;;;;;4962735;28;20462;-50
2022/01/05 06:23:24;;;;;;;1.57;1.47;;;4.70;79.50;;;;;;4950317;28;20495;-49
2022/01/05 06:25:51;;;;;;;5.33;1.63;;;4.60;79.30;;;;;;4957225;28;20533;-50
2022/01/05 06:28:18;;;;;;;3.10;1.20;;;4.60;79.80;;;;;;4954135;28;20996;-50
2022/01/05 06:30:45;;;;;;;5.93;1.70;;;4.60;79.60;;;;;;4970617;28;20518;-50
2022/01/05 06:33:12;;;;;;;3.47;2.10;;;4.70;78.90;;;;;;4946417;28;20563;-49
2022/01/05 06:35:39;;;;;;;1.77;1.60;;;4.60;79.50;;;;;;4951305;28;20979;-50
2022/01/05 06:38:05;;;;;;;3.00;1.83;;;4.70;78.20;;;;;;4968723;28;20470;-50
2022/01/05 06:40:35;;;;;;;4.40;2.00;;;4.60;78.00;;;;;;4952922;28;20558;-48
2022/01/05 06:43:02;;;;;;;1.53;0.93;;;4.60;78.30;;;;;;4961870;28;20493;-49
2022/01/05 06:45:29;;;;;;;2.60;1.47;;;4.60;78.40;;;;;;4953459;28;20492;-49
2022/01/05 06:47:58;;;;;;;5.10;2.10;;;4.60;78.50;;;;;;4953680;28;20899;-50
2022/01/05 06:50:26;;;;;;;2.30;1.40;;;4.60;79.00;;;;;;4949179;28;20835;-49
2022/01/05 06:52:55;;;;;;;2.63;1.67;;;4.60;78.10;;;;;;4953030;28;20487;-49
2022/01/05 06:55:22;;;;;;;5.57;2.23;;;4.60;78.00;;;;;;4950817;28;20489;-49
2022/01/05 06:57:51;;;;;;;5.13;1.73;;;4.60;78.30;;;;;;4952185;28;20463;-49
2022/01/05 07:00:20;;;;;;;4.27;1.40;;;4.60;78.20;;;;;;4950147;28;20460;-49
2022/01/05 07:02:47;;;;;;;2.30;1.57;;;4.60;78.20;;;;;;4948067;28;20459;-49
2022/01/05 07:05:15;;;;;;;4.07;1.33;;;4.50;77.30;;;;;;4951001;28;20956;-49
2022/01/05 07:07:42;;;;;;;1.83;1.70;;;4.50;76.90;;;;;;4948392;28;20934;-49
2022/01/05 07:10:10;;;;;;;2.47;1.67;;;4.50;77.10;;;;;;4970079;28;20976;-49
2022/01/05 07:12:38;;;;;;;3.63;1.70;;;4.40;76.30;;;;;;4947588;28;20493;-49
2022/01/05 07:15:06;;;;;;;3.97;1.70;;;4.40;74.70;;;;;;4944664;28;20977;-48
2022/01/05 07:17:33;;;;;;;2.43;1.67;;;4.30;75.60;;;;;;4952996;28;20483;-49
2022/01/05 07:20:00;;;;;;;4.50;1.87;;;4.20;76.80;;;;;;4963519;28;20471;-49
2022/01/05 07:22:27;;;;;;;1.40;1.30;;;4.20;76.20;;;;;;4950967;28;20483;-49
2022/01/05 07:24:56;;;;;;;3.70;1.70;;;4.20;77.60;;;;;;4964700;28;20463;-49
2022/01/05 07:27:23;;;;;;;1.83;1.23;;;4.20;76.30;;;;;;4952106;28;20491;-48
2022/01/05 07:29:50;;;;;;;2.90;1.67;;;4.10;75.90;;;;;;4933354;29;20465;-50
2022/01/05 07:32:17;;;;;;;3.83;1.87;;;4.10;77.50;;;;;;4966454;28;20474;-48
2022/01/05 07:34:44;;;;;;;4.53;1.60;;;4.10;76.50;;;;;;4951655;28;20842;-48
2022/01/05 07:37:11;;;;;;;3.37;2.40;;;4.10;76.60;;;;;;4953721;28;20458;-49
2022/01/05 07:39:39;;;;;;;8.77;2.10;;;4.10;76.80;;;;;;4964405;28;20472;-49
2022/01/05 07:42:06;;;;;;;2.90;1.63;;;4.10;76.40;;;;;;4949394;28;20473;-49
2022/01/05 07:44:33;;;;;;;4.70;2.10;;;4.10;77.50;;;;;;4949372;28;20470;-49
2022/01/05 07:47:01;;;;;;;1.57;1.37;;;4.10;78.70;;;;;;4947894;28;20608;-49
2022/01/05 07:49:27;;;;;;;2.90;2.03;;;4.10;78.00;;;;;;4961224;28;20896;-49
2022/01/05 07:51:54;;;;;;;3.07;1.50;;;4.10;77.40;;;;;;4948844;28;20491;-50
2022/01/05 07:54:21;;;;;;;6.37;1.63;;;4.10;77.80;;;;;;4946201;28;20485;-49
2022/01/05 07:56:48;;;;;;;5.40;2.00;;;4.10;77.80;;;;;;4967871;28;20470;-50
2022/01/05 07:59:14;;;;;;;3.50;1.70;;;4.20;78.00;;;;;;4956632;28;20461;-49
2022/01/05 08:01:41;;;;;;;3.33;1.83;;;4.20;77.80;;;;;;4950490;28;20984;-48
2022/01/05 08:04:08;;;;;;;2.57;1.50;;;4.20;77.30;;;;;;4953252;28;20473;-48
2022/01/05 08:06:35;;;;;;;3.23;2.03;;;4.20;77.30;;;;;;4959620;28;20490;-49
2022/01/05 08:09:03;;;;;;;3.73;1.80;;;4.10;78.00;;;;;;4949024;28;20463;-50
2022/01/05 08:11:34;;;;;;;5.27;1.50;;;4.10;78.60;;;;;;4965423;28;20459;-49
2022/01/05 08:14:02;;;;;;;3.20;2.20;;;4.20;78.00;;;;;;4951841;28;20459;-51
2022/01/05 08:16:29;;;;;;;3.57;1.23;;;4.20;78.60;;;;;;4965292;28;20462;-49
2022/01/05 08:18:56;;;;;;;4.60;1.40;;;4.20;79.10;;;;;;4960242;28;20589;-50
2022/01/05 08:21:23;;;;;;;4.33;1.70;;;4.20;78.40;;;;;;4951205;28;20987;-49
2022/01/05 08:23:50;;;;;;;2.20;1.67;;;4.20;78.30;;;;;;4950674;28;20573;-50
2022/01/05 08:26:20;;;;;;;3.30;1.93;;;4.20;77.10;;;;;;4937343;28;20935;-53
2022/01/05 08:28:46;;;;;;;7.17;1.80;;;4.20;76.80;;;;;;4952746;28;20546;-53
2022/01/05 08:31:13;;;;;;;5.23;2.13;;;4.20;78.40;;;;;;4960688;28;20450;-53
2022/01/05 08:33:45;;;;;;;1.80;1.47;;;4.20;78.60;;;;;;4946633;28;20835;-53
2022/01/05 08:36:12;;;;;;;7.70;1.67;;;4.20;76.80;;;;;;4944658;28;20475;-53
2022/01/05 08:38:39;;;;;;;5.77;3.20;;;4.20;75.80;;;;;;4947703;28;20489;-53
2022/01/05 08:41:06;;;;;;;4.27;2.73;;;4.20;74.90;;;;;;4950354;28;20542;-53
2022/01/05 08:43:33;;;;;;;5.13;2.23;;;4.20;74.50;;;;;;4968583;28;20466;-53
2022/01/05 08:46:00;;;;;;;4.93;1.57;;;4.20;74.00;;;;;;4942636;28;20523;-53
2022/01/05 08:48:27;;;;;;;3.20;1.40;;;4.10;74.20;;;;;;4949661;28;20459;-53
2022/01/05 08:50:54;;;;;;;4.73;1.70;;;4.10;75.90;;;;;;4960587;28;20813;-53
2022/01/05 08:53:22;;;;;;;4.73;1.27;;;4.10;73.90;;;;;;4945909;28;20489;-53
2022/01/05 08:55:50;;;;;;;3.60;1.93;;;4.10;74.00;;;;;;4951263;28;21037;-53
2022/01/05 08:58:20;;;;;;;14.00;2.70;;;4.00;74.40;;;;;;4946635;28;20862;-52
2022/01/05 09:00:48;;;;;;;3.83;1.60;;;3.90;75.30;;;;;;4947495;28;20937;-52
2022/01/05 09:03:16;;;;;;;3.13;1.80;;;3.90;75.90;;;;;;4945652;28;20846;-51
2022/01/05 09:05:45;;;;;;;3.03;1.60;;;3.90;75.10;;;;;;4949908;28;20466;-52
2022/01/05 09:08:12;;;;;;;7.03;1.80;;;3.90;73.90;;;;;;4945177;28;21004;-52
2022/01/05 09:10:40;;;;;;;7.40;2.70;;;3.90;74.60;;;;;;4948116;28;20965;-53
2022/01/05 09:13:09;;;;;;;4.50;1.77;;;3.90;74.50;;;;;;4950678;28;20459;-52
2022/01/05 09:15:37;;;;;;;2.00;1.23;;;3.90;75.50;;;;;;4950797;28;20451;-52
2022/01/05 09:18:06;;;;;;;6.73;1.77;;;3.90;76.10;;;;;;4948361;28;20465;-53
2022/01/05 09:20:33;;;;;;;10.80;2.10;;;4.00;75.60;;;;;;4952626;28;20463;-53
2022/01/05 09:23:02;;;;;;;2.63;1.70;;;4.00;74.70;;;;;;4945311;28;20481;-52
2022/01/05 09:25:29;;;;;;;6.37;1.60;;;4.10;76.80;;;;;;4952354;28;21088;-52
2022/01/05 09:27:56;;;;;;;8.10;4.03;;;4.10;75.50;;;;;;4964960;28;20917;-53
2022/01/05 09:30:23;;;;;;;10.90;4.50;;;4.20;75.50;;;;;;4959185;28;20462;-53
2022/01/05 09:32:58;;;;;;;4.73;3.23;;;4.20;76.40;;;;;;4951225;28;20820;-52
2022/01/05 09:35:26;;;;;;;5.90;2.23;;;4.40;75.60;;;;;;4954711;28;20478;-53
2022/01/05 09:43:14;;;;;;;9.63;3.03;;;4.70;73.80;;;;;;4950942;28;20968;-53
2022/01/05 09:46:05;;;;;;;5.93;1.77;;;4.80;72.80;;;;;;4946413;28;20466;-52
2022/01/05 09:49:00;;;;;;;5.60;1.70;;;4.90;73.60;;;;;;4966662;28;20458;-52
2022/01/05 09:51:30;;;;;;;3.53;1.80;;;4.90;72.40;;;;;;4946071;28;20979;-53
2022/01/05 09:54:00;;;;;;;7.83;2.20;;;4.90;72.70;;;;;;4943841;28;20462;-53
2022/01/05 09:56:50;;;;;;;2.07;1.60;;;4.90;73.70;;;;;;4951639;28;20482;-53
2022/01/05 09:59:16;;;;;;;2.80;2.10;;;5.00;74.40;;;;;;4944928;28;20466;-53
2022/01/05 10:01:43;;;;;;;11.67;3.83;;;5.00;74.20;;;;;;4947711;28;20495;-52
2022/01/05 10:04:13;;;;;;;6.90;2.10;;;5.00;74.90;;;;;;4954225;28;20808;-52
2022/01/05 10:06:41;;;;;;;2.40;1.50;;;5.00;75.10;;;;;;4954412;28;20499;-52
2022/01/05 10:09:08;;;;;;;4.47;2.30;;;5.10;75.00;;;;;;4953980;28;22141;-52
2022/01/05 10:11:36;;;;;;;7.27;2.00;;;5.10;73.60;;;;;;4949523;28;20463;-52
2022/01/05 10:14:03;;;;;;;5.27;1.50;;;5.10;73.40;;;;;;4951533;28;20459;-51
2022/01/05 10:16:30;;;;;;;5.10;2.00;;;5.10;73.90;;;;;;4952248;28;20458;-52
2022/01/05 10:18:57;;;;;;;3.83;2.00;;;5.10;72.40;;;;;;4952746;28;20471;-53
2022/01/05 10:21:31;;;;;;;8.73;1.50;;;5.10;73.50;;;;;;4955711;28;20586;-52
2022/01/05 10:23:58;;;;;;;8.80;2.00;;;5.10;73.10;;;;;;4952543;28;20490;-52
2022/01/05 10:26:38;;;;;;;5.93;1.53;;;5.10;72.40;;;;;;4964541;28;20594;-52
2022/01/05 10:29:08;;;;;;;2.20;1.70;;;5.10;73.80;;;;;;4949717;28;20465;-53
2022/01/05 10:31:38;;;;;;;4.20;1.80;;;5.10;72.10;;;;;;4955557;28;20539;-53
2022/01/05 10:34:18;;;;;;;2.00;1.50;;;5.20;72.40;;;;;;4959098;28;20513;-50
2022/01/05 10:36:53;;;;;;;7.10;1.80;;;5.10;71.80;;;;;;4954395;28;20502;-50
2022/01/05 10:39:35;;;;;;;7.93;2.33;;;5.10;71.80;;;;;;4958133;28;20546;-49
2022/01/05 10:42:04;;;;;;;6.50;1.57;;;5.10;72.40;;;;;;4943036;28;20465;-50
2022/01/05 10:44:32;;;;;;;5.67;1.83;;;5.10;71.00;;;;;;4946813;28;20467;-50
2022/01/05 10:47:00;;;;;;;4.23;2.67;;;5.10;71.90;;;;;;4951352;28;20782;-50
2022/01/05 10:49:40;;;;;;;3.63;1.90;;;5.10;72.20;;;;;;4970925;28;20536;-50
2022/01/05 10:52:30;;;;;;;3.47;2.17;;;5.10;71.50;;;;;;4953709;28;20502;-50
2022/01/05 10:55:08;;;;;;;3.13;1.97;;;5.10;71.70;;;;;;4947790;28;20502;-50
2022/01/05 10:57:35;;;;;;;6.07;1.73;;;5.10;72.10;;;;;;4944624;28;20896;-50
2022/01/05 11:00:05;;;;;;;7.17;2.30;;;5.00;70.70;;;;;;4951215;28;20458;-51
2022/01/05 11:02:34;;;;;;;12.07;3.87;;;5.10;71.80;;;;;;4954610;28;20459;-50
2022/01/05 11:05:05;;;;;;;6.13;2.70;;;5.10;72.60;;;;;;4945288;28;20725;-50
2022/01/05 11:07:34;;;;;;;4.00;2.80;;;5.10;72.50;;;;;;4948515;28;20860;-50
2022/01/05 11:10:06;;;;;;;6.43;2.10;;;5.10;72.50;;;;;;4951005;28;20566;-50
2022/01/05 11:12:35;;;;;;;2.93;1.60;;;5.10;72.10;;;;;;4960832;28;20458;-50
2022/01/05 11:15:22;;;;;;;4.40;1.73;;;5.10;73.10;;;;;;4951635;28;21028;-50
2022/01/05 11:18:11;;;;;;;2.90;1.63;;;5.10;72.30;;;;;;4950592;28;20517;-50
2022/01/05 11:20:52;;;;;;;9.47;3.00;;;5.10;71.80;;;;;;4954190;28;20560;-49
2022/01/05 11:23:25;;;;;;;3.70;1.70;;;5.10;71.40;;;;;;4946395;28;20877;-50
2022/01/05 11:25:53;;;;;;;5.37;2.33;;;5.00;71.80;;;;;;4957378;28;20482;-50
2022/01/05 11:28:22;;;;;;;2.30;1.30;;;5.00;71.40;;;;;;4949504;28;20514;-50
2022/01/05 11:30:57;;;;;;;2.33;1.60;;;5.00;72.30;;;;;;4954769;28;20454;-51
2022/01/05 11:33:24;;;;;;;3.57;1.87;;;5.00;72.20;;;;;;4956940;28;20962;-51
2022/01/05 11:35:51;;;;;;;6.87;2.40;;;5.00;71.80;;;;;;4952074;28;20451;-50
2022/01/05 11:38:18;;;;;;;1.83;1.73;;;5.00;72.80;;;;;;4954053;28;20496;-50
2022/01/05 11:40:51;;;;;;;2.57;1.60;;;5.00;72.60;;;;;;4949866;28;20463;-50
2022/01/05 11:43:28;;;;;;;6.00;1.70;;;5.00;72.90;;;;;;4943859;28;20554;-50
2022/01/05 11:45:56;;;;;;;5.37;1.80;;;5.00;73.70;;;;;;4944796;28;20825;-50
2022/01/05 11:48:23;;;;;;;2.90;1.27;;;5.10;73.20;;;;;;4942930;28;20530;-51
2022/01/05 11:50:54;;;;;;;3.73;1.70;;;5.10;71.90;;;;;;4949135;28;20486;-50
2022/01/05 11:53:33;;;;;;;2.50;1.97;;;5.20;71.30;;;;;;4940217;28;20550;-49
2022/01/05 11:56:11;;;;;;;4.30;1.87;;;5.20;72.40;;;;;;4948476;28;20473;-51
2022/01/05 11:58:59;;;;;;;3.63;2.23;;;5.20;72.70;;;;;;4946104;28;20489;-50
2022/01/05 12:01:27;;;;;;;4.30;1.77;;;5.20;71.70;;;;;;4950171;28;20554;-50
2022/01/05 12:03:57;;;;;;;3.90;1.57;;;5.20;72.40;;;;;;4947452;28;21056;-51
2022/01/05 12:06:31;;;;;;;3.53;1.63;;;5.20;72.70;;;;;;4957111;28;20523;-50
2022/01/05 12:09:27;;;;;;;5.13;1.73;;;5.20;71.90;;;;;;4948719;28;20979;-50
2022/01/05 12:12:19;;;;;;;2.97;1.63;;;5.20;71.90;;;;;;4944762;28;20481;-51
2022/01/05 12:14:54;;;;;;;7.77;1.83;;;5.20;72.40;;;;;;4947239;28;20479;-50
2022/01/05 12:17:21;;;;;;;4.13;1.50;;;5.20;72.30;;;;;;4951367;28;20478;-51
2022/01/05 12:19:48;;;;;;;5.20;1.30;;;5.30;72.00;;;;;;4948827;28;20493;-50
2022/01/05 12:22:30;;;;;;;5.47;1.50;;;5.30;70.40;;;;;;4947087;28;20459;-49
2022/01/05 12:25:09;;;;;;;3.33;1.40;;;5.30;70.80;;;;;;4947097;28;20929;-50
2022/01/05 12:27:48;;;;;;;4.63;1.60;;;5.30;71.20;;;;;;4944588;28;20578;-49
2022/01/05 12:30:18;;;;;;;3.67;1.50;;;5.30;71.00;;;;;;4945963;28;20516;-52
2022/01/05 12:33:19;;;;;;;6.93;1.80;;;5.30;71.10;;;;;;4947325;28;20889;-50
2022/01/05 12:35:58;;;;;;;4.33;1.50;;;5.30;71.60;;;;;;4945976;28;21266;-51
2022/01/05 12:38:46;;;;;;;2.60;1.10;;;5.30;72.10;;;;;;4950923;28;20549;-51
2022/01/05 12:41:22;;;;;;;6.13;1.67;;;5.30;71.20;;;;;;4948931;28;20494;-52
2022/01/05 12:43:52;;;;;;;7.90;1.80;;;5.30;71.60;;;;;;4948193;28;21052;-51
2022/01/05 12:46:33;;;;;;;3.23;1.83;;;5.30;71.40;;;;;;4949522;28;20474;-51
2022/01/05 12:49:04;;;;;;;3.23;1.57;;;5.30;71.30;;;;;;4949179;28;21018;-51
2022/01/05 12:51:42;;;;;;;4.77;1.83;;;5.30;71.60;;;;;;4960401;28;20966;-52
2022/01/05 12:54:41;;;;;;;4.03;1.70;;;5.30;72.00;;;;;;4945874;28;20461;-50
2022/01/05 12:57:21;;;;;;;6.13;2.27;;;5.30;71.40;;;;;;4950942;28;20458;-52
2022/01/05 12:59:54;;;;;;;5.80;1.90;;;5.20;72.30;;;;;;4938332;28;20463;-51
2022/01/05 13:02:25;;;;;;;5.53;2.47;;;5.20;71.80;;;;;;4945501;28;20480;-51
2022/01/05 13:04:54;;;;;;;2.63;1.40;;;5.20;72.00;;;;;;4949680;28;20832;-49
2022/01/05 13:07:23;;;;;;;3.90;1.37;;;5.20;71.20;;;;;;4947782;28;20505;-50
2022/01/05 13:09:52;;;;;;;2.27;1.87;;;5.20;71.60;;;;;;4946359;28;20490;-51
2022/01/05 13:12:22;;;;;;;5.63;1.57;;;5.20;72.10;;;;;;4952820;28;20541;-51
2022/01/05 13:14:52;;;;;;;11.00;1.90;;;5.20;71.90;;;;;;4953099;28;20462;-50